Time;durP1;ratioP1;P1;durP2;ratioP2;P2;SDS_P1;SDS_P2;PMS_P1;PMS_P2;Temp;Humidity;BMP_temperature;BMP_pressure;BME280_temperature;BME280_humidity;BME280_pressure;Samples;Min_cycle;Max_cycle;Signal;HPM_P1;HPM_P2
2022/05/24 00:00:06;;;;;;;20.23;10.27;;;;;;;;;;5045981;28;20199;-79
2022/05/24 00:02:33;;;;;;;19.67;9.47;;;;;;;;;;5047144;28;20694;-78
2022/05/24 00:05:02;;;;;;;17.53;9.33;;;;;;;;;;5045148;28;20775;-78
2022/05/24 00:07:30;;;;;;;20.50;10.27;;;;;;;;;;5047972;28;20294;-78
2022/05/24 00:09:57;;;;;;;16.80;9.80;;;;;;;;;;5045969;28;20317;-78
2022/05/24 00:12:24;;;;;;;16.07;9.73;;;;;;;;;;5046863;28;20237;-77
2022/05/24 00:17:36;;;;;;;15.53;8.23;;;;;;;;;;5047418;28;20244;-78
2022/05/24 00:20:05;;;;;;;16.87;8.80;;;;;;;;;;5047172;28;20652;-77
2022/05/24 00:22:33;;;;;;;13.17;8.43;;;;;;;;;;5048745;28;20314;-78
2022/05/24 00:25:01;;;;;;;17.10;7.60;;;;;;;;;;5043205;28;20636;-77
2022/05/24 00:27:28;;;;;;;20.57;8.67;;;;;;;;;;5041268;28;20207;-78
2022/05/24 00:29:56;;;;;;;11.97;7.30;;;;;;;;;;5047977;28;20684;-77
2022/05/24 00:32:23;;;;;;;16.40;8.00;;;;;;;;;;5041252;28;20238;-78
2022/05/24 00:34:50;;;;;;;21.37;8.00;;;;;;;;;;5046659;28;20234;-77
2022/05/24 00:37:21;;;;;;;13.73;7.67;;;;;;;;;;5046042;28;20294;-78
2022/05/24 00:39:48;;;;;;;14.43;8.37;;;;;;;;;;5040181;28;20289;-78
2022/05/24 00:42:18;;;;;;;17.27;8.67;;;;;;;;;;5046946;28;20587;-78
2022/05/24 00:44:48;;;;;;;13.93;8.00;;;;;;;;;;5040639;28;20824;-78
2022/05/24 00:47:17;;;;;;;15.97;7.80;;;;;;;;;;5043466;28;20577;-78
2022/05/24 00:49:47;;;;;;;18.50;8.03;;;;;;;;;;5044136;28;20206;-77
2022/05/24 00:52:17;;;;;;;18.03;8.37;;;;;;;;;;5046480;28;20262;-78
2022/05/24 00:54:45;;;;;;;13.63;8.03;;;;;;;;;;5047995;28;20697;-77
2022/05/24 00:57:17;;;;;;;12.57;6.87;;;;;;;;;;5045602;28;20688;-77
2022/05/24 00:59:48;;;;;;;13.13;7.23;;;;;;;;;;5045577;28;20206;-77
2022/05/24 01:02:15;;;;;;;15.97;6.77;;;;;;;;;;5044363;28;20876;-77
2022/05/24 01:04:42;;;;;;;14.13;7.17;;;;;;;;;;5045683;28;20234;-78
2022/05/24 01:07:10;;;;;;;11.70;7.60;;;;;;;;;;5046512;28;20300;-77
2022/05/24 01:09:40;;;;;;;13.03;7.60;;;;;;;;;;5046250;28;20702;-77
2022/05/24 01:12:10;;;;;;;16.73;6.80;;;;;;;;;;5046898;28;20585;-77
2022/05/24 01:14:38;;;;;;;16.30;6.77;;;;;;;;;;5045064;28;20254;-77
2022/05/24 01:17:06;;;;;;;18.20;7.60;;;;;;;;;;5046577;28;20291;-78
2022/05/24 01:19:35;;;;;;;14.83;7.30;;;;;;;;;;5048142;28;20206;-77
2022/05/24 01:22:10;;;;;;;13.47;6.67;;;;;;;;;;5045602;28;21083;-78
2022/05/24 01:24:42;;;;;;;10.87;6.70;;;;;;;;;;5043414;28;20304;-77
2022/05/24 01:27:11;;;;;;;12.57;6.77;;;;;;;;;;5040321;28;20682;-78
2022/05/24 01:29:38;;;;;;;12.93;7.40;;;;;;;;;;5043021;28;20204;-78
2022/05/24 01:37:36;;;;;;;13.53;7.10;;;;;;;;;;5045806;28;20329;-77
2022/05/24 01:40:04;;;;;;;14.27;6.73;;;;;;;;;;5041922;28;20286;-77
2022/05/24 01:42:32;;;;;;;11.80;7.10;;;;;;;;;;5040490;28;20321;-77
2022/05/24 01:45:03;;;;;;;13.63;6.97;;;;;;;;;;5044140;28;20206;-77
2022/05/24 01:47:31;;;;;;;18.03;7.10;;;;;;;;;;5041884;28;20206;-78
2022/05/24 01:49:59;;;;;;;10.60;6.90;;;;;;;;;;5045074;28;20221;-77
2022/05/24 01:52:29;;;;;;;10.83;6.70;;;;;;;;;;5046470;28;20662;-78
2022/05/24 01:54:57;;;;;;;12.63;6.47;;;;;;;;;;5044673;28;20225;-78
2022/05/24 01:57:27;;;;;;;10.33;6.23;;;;;;;;;;5045628;28;20297;-78
2022/05/24 01:59:57;;;;;;;10.63;6.20;;;;;;;;;;5042790;28;20302;-77
2022/05/24 02:02:24;;;;;;;10.47;6.37;;;;;;;;;;5042958;28;20255;-77
2022/05/24 02:04:51;;;;;;;11.83;6.43;;;;;;;;;;5041896;28;20217;-77
2022/05/24 02:07:20;;;;;;;13.70;6.87;;;;;;;;;;5041510;28;20208;-77
2022/05/24 02:09:48;;;;;;;11.40;7.07;;;;;;;;;;5044606;28;20231;-77
2022/05/24 02:12:17;;;;;;;12.67;7.30;;;;;;;;;;5046480;28;20242;-77
2022/05/24 02:14:47;;;;;;;13.97;7.00;;;;;;;;;;5043123;28;20303;-77
2022/05/24 02:17:17;;;;;;;11.77;6.67;;;;;;;;;;5045205;28;20708;-78
2022/05/24 02:19:47;;;;;;;12.90;7.33;;;;;;;;;;5042544;28;20214;-77
2022/05/24 02:22:17;;;;;;;12.07;7.50;;;;;;;;;;5041245;28;20227;-78
2022/05/24 02:24:45;;;;;;;13.47;7.03;;;;;;;;;;5045359;28;20634;-77
2022/05/24 02:27:12;;;;;;;21.60;7.20;;;;;;;;;;5048642;28;20662;-77
2022/05/24 02:29:39;;;;;;;13.40;6.90;;;;;;;;;;5044498;28;20210;-77
2022/05/24 02:32:07;;;;;;;11.20;6.37;;;;;;;;;;5047074;28;20340;-77
2022/05/24 02:34:37;;;;;;;15.30;6.67;;;;;;;;;;5045805;28;20239;-77
2022/05/24 02:37:04;;;;;;;14.73;6.60;;;;;;;;;;5047823;28;20232;-77
2022/05/24 02:41:28;;;;;;;11.20;5.77;;;;;;;;;;5042634;28;20290;-77
2022/05/24 02:42:19;;;;;;;12.30;6.67;;;;;;;;;;5043440;28;20300;-77
2022/05/24 02:44:46;;;;;;;24.07;8.70;;;;;;;;;;5041792;28;20203;-77
2022/05/24 02:47:13;;;;;;;15.17;7.37;;;;;;;;;;5048360;28;20291;-77
2022/05/24 02:49:42;;;;;;;15.97;7.23;;;;;;;;;;5045691;28;20646;-78
2022/05/24 02:52:09;;;;;;;20.13;7.40;;;;;;;;;;5043395;28;20338;-77
2022/05/24 02:54:36;;;;;;;17.53;7.90;;;;;;;;;;5044304;28;20521;-77
2022/05/24 02:57:04;;;;;;;13.00;8.00;;;;;;;;;;5041107;28;20219;-77
2022/05/24 02:59:33;;;;;;;18.00;8.13;;;;;;;;;;5042200;28;20577;-78
2022/05/24 03:02:00;;;;;;;11.13;5.93;;;;;;;;;;5043387;28;20330;-77
2022/05/24 03:04:27;;;;;;;11.33;7.00;;;;;;;;;;5046214;28;20299;-78
2022/05/24 03:09:41;;;;;;;19.87;7.37;;;;;;;;;;5041907;28;20240;-77
2022/05/24 03:14:54;;;;;;;11.60;5.90;;;;;;;;;;5047655;28;20210;-77
2022/05/24 03:17:22;;;;;;;11.10;6.00;;;;;;;;;;5042655;28;20223;-77
2022/05/24 03:19:49;;;;;;;9.93;5.40;;;;;;;;;;5045469;28;20235;-77
2022/05/24 03:22:18;;;;;;;14.90;5.77;;;;;;;;;;5049183;28;20269;-77
2022/05/24 03:24:45;;;;;;;10.27;5.93;;;;;;;;;;5051650;28;20202;-77
2022/05/24 03:27:13;;;;;;;13.20;5.87;;;;;;;;;;5047085;28;20597;-77
2022/05/24 03:29:40;;;;;;;11.70;5.57;;;;;;;;;;5045899;28;20728;-77
2022/05/24 03:32:09;;;;;;;10.30;5.53;;;;;;;;;;5042125;28;20259;-77
2022/05/24 03:34:37;;;;;;;12.63;6.10;;;;;;;;;;5040106;28;20295;-77
2022/05/24 03:37:04;;;;;;;10.67;6.33;;;;;;;;;;5043655;28;20306;-77
2022/05/24 03:39:33;;;;;;;11.70;7.17;;;;;;;;;;5042387;28;20210;-77
2022/05/24 03:42:01;;;;;;;14.10;7.63;;;;;;;;;;5039681;28;20604;-77
2022/05/24 03:44:28;;;;;;;13.03;6.90;;;;;;;;;;5038471;28;20204;-76
2022/05/24 03:46:55;;;;;;;12.90;7.70;;;;;;;;;;5041469;28;20215;-77
2022/05/24 03:49:23;;;;;;;14.00;8.00;;;;;;;;;;5041690;28;20199;-77
2022/05/24 03:51:50;;;;;;;14.50;7.80;;;;;;;;;;5038224;28;20222;-77
2022/05/24 03:54:17;;;;;;;14.33;7.47;;;;;;;;;;5042843;28;20298;-77
2022/05/24 03:59:27;;;;;;;14.27;8.57;;;;;;;;;;5040605;28;20834;-77
2022/05/24 04:01:54;;;;;;;20.13;9.77;;;;;;;;;;5042082;28;20231;-77
2022/05/24 04:04:22;;;;;;;16.13;9.63;;;;;;;;;;5042959;28;20651;-77
2022/05/24 04:06:49;;;;;;;15.50;8.73;;;;;;;;;;5040513;28;20208;-77
2022/05/24 04:09:16;;;;;;;14.57;9.23;;;;;;;;;;5038215;28;20306;-77
2022/05/24 04:11:43;;;;;;;19.87;9.33;;;;;;;;;;5042868;28;20309;-78
2022/05/24 04:14:12;;;;;;;10.37;6.77;;;;;;;;;;5042170;28;20211;-78
2022/05/24 04:16:39;;;;;;;20.23;6.43;;;;;;;;;;5039764;28;20706;-78
2022/05/24 04:19:06;;;;;;;14.57;6.33;;;;;;;;;;5038966;28;20231;-76
2022/05/24 04:21:34;;;;;;;13.70;7.27;;;;;;;;;;5041785;28;20227;-76
2022/05/24 04:24:01;;;;;;;15.03;7.77;;;;;;;;;;5041218;28;20303;-75
2022/05/24 04:26:28;;;;;;;14.07;7.73;;;;;;;;;;5041886;28;20633;-76
2022/05/24 04:28:55;;;;;;;15.77;8.73;;;;;;;;;;5041593;28;20206;-76
2022/05/24 04:31:24;;;;;;;14.23;8.07;;;;;;;;;;5045774;28;20226;-76
2022/05/24 04:33:51;;;;;;;13.60;8.37;;;;;;;;;;5039167;28;20299;-75
2022/05/24 04:36:18;;;;;;;19.67;8.53;;;;;;;;;;5039131;28;20223;-76
2022/05/24 04:38:45;;;;;;;11.73;7.43;;;;;;;;;;5041877;28;20294;-75
2022/05/24 04:43:57;;;;;;;17.07;9.47;;;;;;;;;;5039864;28;20206;-76
2022/05/24 04:47:06;;;;;;;13.40;8.40;;;;;;;;;;5039010;28;20577;-75
2022/05/24 04:49:13;;;;;;;16.90;8.80;;;;;;;;;;5041228;28;20583;-76
2022/05/24 04:51:40;;;;;;;14.60;8.33;;;;;;;;;;5036537;28;20218;-77
2022/05/24 04:54:08;;;;;;;16.00;8.73;;;;;;;;;;5041685;28;20200;-76
2022/05/24 04:56:35;;;;;;;17.73;7.97;;;;;;;;;;5036600;28;20515;-76
2022/05/24 04:59:02;;;;;;;12.33;7.97;;;;;;;;;;5039950;28;20195;-77
2022/05/24 05:01:30;;;;;;;14.43;8.20;;;;;;;;;;5038092;28;20605;-76
2022/05/24 05:03:57;;;;;;;17.27;7.73;;;;;;;;;;5037590;28;20199;-76
2022/05/24 05:06:25;;;;;;;13.37;8.20;;;;;;;;;;5041020;28;20313;-77
2022/05/24 05:08:52;;;;;;;13.63;7.90;;;;;;;;;;5036768;28;20290;-76
2022/05/24 05:11:19;;;;;;;10.50;7.00;;;;;;;;;;5041449;28;20227;-76
2022/05/24 05:13:46;;;;;;;12.60;7.40;;;;;;;;;;5039831;28;20745;-76
2022/05/24 05:16:14;;;;;;;11.67;7.20;;;;;;;;;;5040633;28;20222;-76
2022/05/24 05:18:42;;;;;;;11.50;7.17;;;;;;;;;;5038334;28;20210;-75
2022/05/24 05:21:09;;;;;;;15.23;7.43;;;;;;;;;;5041369;28;20225;-76
2022/05/24 05:23:36;;;;;;;14.13;7.83;;;;;;;;;;5038177;28;20223;-76
2022/05/24 05:26:04;;;;;;;13.27;7.37;;;;;;;;;;5041539;28;20281;-77
2022/05/24 05:28:31;;;;;;;12.30;7.27;;;;;;;;;;5043138;28;20325;-77
2022/05/24 05:33:44;;;;;;;12.93;7.27;;;;;;;;;;5042375;28;20207;-76
2022/05/24 05:36:12;;;;;;;11.30;6.27;;;;;;;;;;5039242;28;20331;-77
2022/05/24 05:38:45;;;;;;;11.13;6.87;;;;;;;;;;5039715;28;20213;-77
2022/05/24 05:41:12;;;;;;;12.03;6.90;;;;;;;;;;5041860;28;20226;-77
2022/05/24 05:43:39;;;;;;;13.87;7.23;;;;;;;;;;5040995;28;20643;-77
2022/05/24 05:46:07;;;;;;;10.80;6.77;;;;;;;;;;5042173;28;20223;-78
2022/05/24 05:48:35;;;;;;;14.63;6.90;;;;;;;;;;5045192;28;20274;-78
2022/05/24 05:51:03;;;;;;;12.77;6.97;;;;;;;;;;5042830;28;20858;-78
2022/05/24 05:53:30;;;;;;;12.40;7.40;;;;;;;;;;5044704;28;20249;-80
2022/05/24 05:55:58;;;;;;;13.93;6.73;;;;;;;;;;5051648;28;20205;-79
2022/05/24 05:58:25;;;;;;;15.43;6.70;;;;;;;;;;5053104;28;20670;-77
2022/05/24 06:00:52;;;;;;;15.17;6.40;;;;;;;;;;5047601;28;20209;-77
2022/05/24 06:03:20;;;;;;;13.10;6.80;;;;;;;;;;5052037;28;20214;-76
2022/05/24 06:05:48;;;;;;;18.47;5.93;;;;;;;;;;5047950;28;20256;-79
2022/05/24 06:08:17;;;;;;;8.07;3.13;;;;;;;;;;5046317;28;20206;-78
2022/05/24 06:10:44;;;;;;;4.80;2.40;;;;;;;;;;5048948;28;20219;-78
2022/05/24 06:13:12;;;;;;;3.03;1.53;;;;;;;;;;5049795;28;20258;-78
2022/05/24 06:15:39;;;;;;;3.87;1.70;;;;;;;;;;5052189;28;20496;-79
2022/05/24 06:18:06;;;;;;;2.70;1.50;;;;;;;;;;5048840;28;20793;-79
2022/05/24 06:20:34;;;;;;;3.93;1.33;;;;;;;;;;5045816;28;20202;-79
2022/05/24 06:23:01;;;;;;;5.20;1.63;;;;;;;;;;5049658;28;20257;-80
2022/05/24 06:25:31;;;;;;;4.57;1.70;;;;;;;;;;5055782;28;20207;-79
2022/05/24 06:27:58;;;;;;;3.47;1.60;;;;;;;;;;5052536;28;20295;-79
2022/05/24 06:30:26;;;;;;;3.77;1.40;;;;;;;;;;5053320;28;20739;-79
2022/05/24 06:32:54;;;;;;;3.00;1.60;;;;;;;;;;5050835;28;20226;-78
2022/05/24 06:35:21;;;;;;;2.43;1.30;;;;;;;;;;5046104;28;20262;-77
2022/05/24 06:37:49;;;;;;;3.77;1.30;;;;;;;;;;5040886;28;20220;-76
2022/05/24 06:40:17;;;;;;;7.43;1.40;;;;;;;;;;5045007;28;20218;-76
2022/05/24 06:42:46;;;;;;;3.23;1.40;;;;;;;;;;5046562;28;20305;-76
2022/05/24 06:45:13;;;;;;;2.90;1.40;;;;;;;;;;5049007;28;20650;-79
2022/05/24 06:47:40;;;;;;;6.70;1.80;;;;;;;;;;5048007;28;20289;-79
2022/05/24 06:50:08;;;;;;;3.57;1.43;;;;;;;;;;5047497;28;20207;-77
2022/05/24 06:52:36;;;;;;;8.73;1.60;;;;;;;;;;5049262;28;20294;-79
2022/05/24 06:55:03;;;;;;;2.63;1.33;;;;;;;;;;5047352;28;20204;-79
2022/05/24 06:57:31;;;;;;;5.10;1.43;;;;;;;;;;5043489;28;20774;-76
2022/05/24 07:02:45;;;;;;;4.50;1.90;;;;;;;;;;5048328;28;20276;-79
2022/05/24 07:05:14;;;;;;;3.53;1.63;;;;;;;;;;5041957;28;20822;-79
2022/05/24 07:07:42;;;;;;;7.17;1.80;;;;;;;;;;5045907;28;20302;-79
2022/05/24 07:10:12;;;;;;;4.40;1.57;;;;;;;;;;5049148;28;20199;-79
2022/05/24 07:12:39;;;;;;;4.67;1.70;;;;;;;;;;5053530;28;20222;-79
2022/05/24 07:15:08;;;;;;;5.87;1.70;;;;;;;;;;5051473;28;20199;-80
2022/05/24 07:17:35;;;;;;;5.60;1.97;;;;;;;;;;5051435;28;20254;-78
2022/05/24 07:20:03;;;;;;;9.23;1.97;;;;;;;;;;5053083;28;20207;-79
2022/05/24 07:22:31;;;;;;;5.40;1.63;;;;;;;;;;5053245;28;20230;-79
2022/05/24 07:24:58;;;;;;;8.97;1.80;;;;;;;;;;5053060;28;20199;-79
2022/05/24 07:27:25;;;;;;;4.53;1.60;;;;;;;;;;5050274;28;20295;-78
2022/05/24 07:29:52;;;;;;;3.83;1.60;;;;;;;;;;5045046;28;20294;-79
2022/05/24 07:32:21;;;;;;;4.40;1.47;;;;;;;;;;5045497;28;20250;-78
2022/05/24 07:34:48;;;;;;;5.20;1.73;;;;;;;;;;5045855;28;20700;-79
2022/05/24 07:37:16;;;;;;;6.03;1.80;;;;;;;;;;5045626;28;21164;-79
2022/05/24 07:39:44;;;;;;;4.40;1.40;;;;;;;;;;5045162;28;20210;-79
2022/05/24 07:47:43;;;;;;;3.60;1.60;;;;;;;;;;5048246;28;20210;-79
2022/05/24 07:50:10;;;;;;;2.73;1.63;;;;;;;;;;5049941;28;20234;-78
2022/05/24 07:52:37;;;;;;;3.70;1.60;;;;;;;;;;5046743;28;20305;-78
2022/05/24 07:55:05;;;;;;;7.43;1.57;;;;;;;;;;5047160;28;20298;-78
2022/05/24 07:57:33;;;;;;;3.67;1.27;;;;;;;;;;5048352;28;20228;-79
2022/05/24 08:00:00;;;;;;;4.07;1.30;;;;;;;;;;5043831;28;20364;-79
2022/05/24 08:02:27;;;;;;;5.07;1.57;;;;;;;;;;5048207;28;20697;-80
2022/05/24 08:04:56;;;;;;;3.53;1.40;;;;;;;;;;5058179;28;20214;-79
2022/05/24 08:07:23;;;;;;;2.57;1.40;;;;;;;;;;5062769;28;20204;-78
2022/05/24 08:09:50;;;;;;;3.30;1.23;;;;;;;;;;5062616;28;20239;-78
2022/05/24 08:12:18;;;;;;;2.27;1.20;;;;;;;;;;5057494;28;20717;-79
2022/05/24 08:14:45;;;;;;;3.63;1.10;;;;;;;;;;5055090;28;20208;-79
2022/05/24 08:17:12;;;;;;;5.70;1.57;;;;;;;;;;5050868;28;20257;-78
2022/05/24 08:19:39;;;;;;;2.63;1.07;;;;;;;;;;5051889;28;20285;-78
2022/05/24 08:22:08;;;;;;;6.57;2.47;;;;;;;;;;5047201;28;20306;-77
2022/05/24 08:24:35;;;;;;;2.80;1.30;;;;;;;;;;5047892;28;20207;-76
2022/05/24 08:27:03;;;;;;;4.90;0.90;;;;;;;;;;5050123;28;20287;-79
2022/05/24 08:29:30;;;;;;;2.00;1.00;;;;;;;;;;5044119;28;20298;-76
2022/05/24 08:31:58;;;;;;;2.20;1.00;;;;;;;;;;5043981;28;20321;-78
2022/05/24 08:34:25;;;;;;;2.20;1.00;;;;;;;;;;5040948;28;20260;-76
2022/05/24 08:36:52;;;;;;;1.40;0.90;;;;;;;;;;5040694;28;20195;-77
2022/05/24 08:39:20;;;;;;;2.27;0.87;;;;;;;;;;5043783;28;20310;-78
2022/05/24 08:41:56;;;;;;;1.13;0.80;;;;;;;;;;5046149;28;20309;-76
2022/05/24 08:50:01;;;;;;;1.97;0.73;;;;;;;;;;5043228;28;20198;-77
2022/05/24 08:52:33;;;;;;;5.00;0.70;;;;;;;;;;5044564;28;20233;-76
2022/05/24 08:55:02;;;;;;;1.60;0.80;;;;;;;;;;5042479;28;20199;-77
2022/05/24 08:57:36;;;;;;;1.70;0.70;;;;;;;;;;5046671;28;20222;-76
2022/05/24 09:00:06;;;;;;;1.40;0.60;;;;;;;;;;5042928;28;20705;-76
2022/05/24 09:02:33;;;;;;;3.73;1.13;;;;;;;;;;5047154;28;20227;-77
2022/05/24 09:05:00;;;;;;;2.23;0.90;;;;;;;;;;5044934;28;20293;-77
2022/05/24 09:07:32;;;;;;;3.13;0.70;;;;;;;;;;5044787;28;20294;-77
2022/05/24 09:10:03;;;;;;;2.30;0.70;;;;;;;;;;5044176;28;20275;-77
2022/05/24 09:12:37;;;;;;;1.57;0.67;;;;;;;;;;5043879;28;20310;-78
2022/05/24 09:15:09;;;;;;;0.60;0.50;;;;;;;;;;5046751;28;20203;-78
2022/05/24 09:17:41;;;;;;;1.23;0.80;;;;;;;;;;5044863;28;20307;-77
2022/05/24 09:20:12;;;;;;;2.60;0.80;;;;;;;;;;5041907;28;20640;-77
2022/05/24 09:22:40;;;;;;;2.33;0.70;;;;;;;;;;5040163;28;20215;-77
2022/05/24 09:25:09;;;;;;;1.03;0.50;;;;;;;;;;5043724;28;20226;-77
2022/05/24 09:27:49;;;;;;;3.33;0.70;;;;;;;;;;5036688;28;20562;-77
2022/05/24 09:30:23;;;;;;;3.20;0.87;;;;;;;;;;5043669;28;20203;-77
2022/05/24 09:32:50;;;;;;;1.77;0.43;;;;;;;;;;5041880;28;20757;-77
2022/05/24 09:35:22;;;;;;;2.13;0.50;;;;;;;;;;5043043;28;20256;-76
2022/05/24 09:38:08;;;;;;;1.17;0.50;;;;;;;;;;5043723;28;20310;-77
2022/05/24 09:40:47;;;;;;;1.73;0.57;;;;;;;;;;5040685;28;20336;-77
2022/05/24 09:43:19;;;;;;;2.30;0.67;;;;;;;;;;5044420;28;20233;-77
2022/05/24 09:45:47;;;;;;;2.37;0.60;;;;;;;;;;5044487;28;20202;-77
2022/05/24 09:48:22;;;;;;;2.10;0.43;;;;;;;;;;5042900;28;20297;-77
2022/05/24 09:50:51;;;;;;;2.57;0.67;;;;;;;;;;5040854;28;20566;-76
2022/05/24 09:53:19;;;;;;;1.50;0.60;;;;;;;;;;5045225;28;20676;-75
2022/05/24 09:55:49;;;;;;;3.07;0.73;;;;;;;;;;5041493;28;20206;-77
2022/05/24 09:58:17;;;;;;;4.57;0.97;;;;;;;;;;5040839;28;20239;-78
2022/05/24 10:00:49;;;;;;;3.70;0.80;;;;;;;;;;5041482;28;20210;-77
2022/05/24 10:03:21;;;;;;;0.70;0.43;;;;;;;;;;5043932;28;20210;-77
2022/05/24 10:05:55;;;;;;;3.43;0.77;;;;;;;;;;5043701;28;20199;-78
2022/05/24 10:08:23;;;;;;;1.10;0.60;;;;;;;;;;5040225;28;20205;-76
2022/05/24 10:10:56;;;;;;;1.97;0.77;;;;;;;;;;5037337;28;20598;-77
2022/05/24 10:13:32;;;;;;;1.97;0.60;;;;;;;;;;5043943;28;20206;-76
2022/05/24 10:16:02;;;;;;;1.03;0.40;;;;;;;;;;5046414;28;20201;-76
2022/05/24 10:18:40;;;;;;;3.60;0.63;;;;;;;;;;5042506;28;20772;-76
2022/05/24 10:21:14;;;;;;;2.37;0.80;;;;;;;;;;5044116;28;20258;-77
2022/05/24 10:23:45;;;;;;;1.93;0.57;;;;;;;;;;5046069;28;20285;-75
2022/05/24 10:26:18;;;;;;;1.93;0.70;;;;;;;;;;5043863;28;20211;-76
2022/05/24 10:28:48;;;;;;;3.80;0.60;;;;;;;;;;5045151;28;20199;-77
2022/05/24 10:31:25;;;;;;;1.47;0.50;;;;;;;;;;5044194;28;20610;-75
2022/05/24 10:39:38;;;;;;;1.40;0.50;;;;;;;;;;5042016;28;20238;-77
2022/05/24 10:42:11;;;;;;;2.43;0.60;;;;;;;;;;5042539;28;20215;-77
2022/05/24 10:44:41;;;;;;;2.03;0.73;;;;;;;;;;5044803;28;20239;-75
2022/05/24 10:47:09;;;;;;;1.07;0.50;;;;;;;;;;5047393;28;20203;-76
2022/05/24 10:49:42;;;;;;;3.90;0.77;;;;;;;;;;5048298;28;20207;-77
2022/05/24 10:52:12;;;;;;;2.63;0.50;;;;;;;;;;5049295;28;20746;-75
2022/05/24 10:54:44;;;;;;;1.70;0.57;;;;;;;;;;5044850;28;20292;-75
2022/05/24 10:57:14;;;;;;;2.13;0.70;;;;;;;;;;5049465;28;20217;-75
2022/05/24 10:59:47;;;;;;;2.33;0.60;;;;;;;;;;5045635;28;20230;-76
2022/05/24 11:02:18;;;;;;;1.77;0.60;;;;;;;;;;5045054;28;20230;-75
2022/05/24 11:04:49;;;;;;;2.23;0.60;;;;;;;;;;5047635;28;20235;-75
2022/05/24 11:07:18;;;;;;;2.43;0.60;;;;;;;;;;5047858;28;20262;-75
2022/05/24 11:09:52;;;;;;;1.47;0.70;;;;;;;;;;5048703;28;20300;-75
2022/05/24 11:12:23;;;;;;;3.00;0.60;;;;;;;;;;5048017;28;20228;-75
2022/05/24 11:14:53;;;;;;;2.57;0.60;;;;;;;;;;5045457;28;20561;-74
2022/05/24 11:17:20;;;;;;;1.50;0.50;;;;;;;;;;5045902;28;20211;-76
2022/05/24 11:19:50;;;;;;;0.67;0.50;;;;;;;;;;5044741;28;20613;-75
2022/05/24 11:22:22;;;;;;;1.40;0.60;;;;;;;;;;5043320;28;20758;-76
2022/05/24 11:24:51;;;;;;;2.13;0.80;;;;;;;;;;5045855;28;20282;-76
2022/05/24 11:27:24;;;;;;;3.30;0.57;;;;;;;;;;5046247;28;20231;-76
2022/05/24 11:29:55;;;;;;;3.10;0.57;;;;;;;;;;5045187;28;20207;-74
2022/05/24 11:32:32;;;;;;;1.17;0.70;;;;;;;;;;5046613;28;20321;-74
2022/05/24 11:35:03;;;;;;;0.93;0.50;;;;;;;;;;5043567;28;20195;-76
2022/05/24 11:37:32;;;;;;;0.83;0.50;;;;;;;;;;5041775;28;20210;-75
2022/05/24 11:40:20;;;;;;;2.90;0.60;;;;;;;;;;5043153;28;20254;-76
2022/05/24 11:42:48;;;;;;;2.53;0.70;;;;;;;;;;5042878;28;20341;-75
2022/05/24 11:45:34;;;;;;;1.10;0.47;;;;;;;;;;5043157;28;20772;-76
2022/05/24 11:48:16;;;;;;;1.20;0.63;;;;;;;;;;5045770;28;20241;-76
2022/05/24 11:50:45;;;;;;;2.57;0.47;;;;;;;;;;5045127;28;20268;-76
2022/05/24 11:53:33;;;;;;;2.17;0.43;;;;;;;;;;5043455;28;20207;-75
2022/05/24 11:56:18;;;;;;;2.43;0.60;;;;;;;;;;5038042;28;20243;-76
2022/05/24 11:58:47;;;;;;;2.53;0.60;;;;;;;;;;5043820;28;20235;-75
2022/05/24 12:01:29;;;;;;;1.43;0.50;;;;;;;;;;5044044;28;20664;-75
2022/05/24 12:09:55;;;;;;;1.80;0.47;;;;;;;;;;5037822;28;20598;-76
2022/05/24 12:12:24;;;;;;;2.40;0.60;;;;;;;;;;5038711;28;20616;-76
2022/05/24 12:15:06;;;;;;;3.47;1.10;;;;;;;;;;5041796;28;20203;-77
2022/05/24 12:17:33;;;;;;;1.07;0.60;;;;;;;;;;5044878;28;20257;-75
2022/05/24 12:20:04;;;;;;;1.50;0.40;;;;;;;;;;5045289;28;20222;-75
2022/05/24 12:22:41;;;;;;;0.67;0.50;;;;;;;;;;5041564;28;20273;-75
2022/05/24 12:25:08;;;;;;;2.17;0.70;;;;;;;;;;5044475;28;20676;-75
2022/05/24 12:27:44;;;;;;;3.73;0.80;;;;;;;;;;5043504;28;20217;-76
2022/05/24 12:30:28;;;;;;;2.33;0.73;;;;;;;;;;5043281;28;20700;-76
2022/05/24 12:32:56;;;;;;;1.33;0.70;;;;;;;;;;5044965;28;20229;-75
2022/05/24 12:35:25;;;;;;;1.23;0.60;;;;;;;;;;5043932;28;20210;-74
2022/05/24 12:37:54;;;;;;;1.47;0.50;;;;;;;;;;5042443;28;20278;-75
2022/05/24 12:40:22;;;;;;;1.67;0.60;;;;;;;;;;5041956;28;20226;-76
2022/05/24 12:42:51;;;;;;;3.87;0.77;;;;;;;;;;5044240;28;20269;-75
2022/05/24 12:45:23;;;;;;;1.20;0.50;;;;;;;;;;5041724;28;20294;-76
2022/05/24 12:47:54;;;;;;;3.20;0.43;;;;;;;;;;5042664;28;20221;-76
2022/05/24 12:50:27;;;;;;;2.17;0.50;;;;;;;;;;5042241;28;20290;-75
2022/05/24 12:52:58;;;;;;;1.40;0.90;;;;;;;;;;5042146;28;20223;-76
2022/05/24 12:58:09;;;;;;;0.70;0.40;;;;;;;;;;5038221;28;20673;-76
2022/05/24 13:00:37;;;;;;;3.40;0.53;;;;;;;;;;5037538;28;20227;-75
2022/05/24 13:03:04;;;;;;;2.50;0.70;;;;;;;;;;5044992;28;20242;-75
2022/05/24 13:05:37;;;;;;;3.03;0.87;;;;;;;;;;5040928;28;20663;-75
2022/05/24 13:08:05;;;;;;;2.03;0.50;;;;;;;;;;5043123;28;20298;-75
2022/05/24 13:10:35;;;;;;;0.73;0.47;;;;;;;;;;5045151;28;20211;-75
2022/05/24 13:13:03;;;;;;;1.10;0.67;;;;;;;;;;5045391;28;20246;-76
2022/05/24 13:15:32;;;;;;;2.33;0.43;;;;;;;;;;5043191;28;20286;-75
2022/05/24 13:18:02;;;;;;;1.47;0.67;;;;;;;;;;5043599;28;20708;-75
2022/05/24 13:20:36;;;;;;;0.60;0.40;;;;;;;;;;5041984;28;20226;-75
2022/05/24 13:23:06;;;;;;;0.87;0.53;;;;;;;;;;5042223;28;20226;-76
2022/05/24 13:25:45;;;;;;;2.27;0.80;;;;;;;;;;5038917;28;20221;-76
2022/05/24 13:28:13;;;;;;;3.43;0.70;;;;;;;;;;5045388;28;20744;-76
2022/05/24 13:33:34;;;;;;;2.43;0.50;;;;;;;;;;5041703;28;20218;-76
2022/05/24 13:36:03;;;;;;;2.10;0.80;;;;;;;;;;5042281;28;20306;-76
2022/05/24 13:38:30;;;;;;;1.87;0.50;;;;;;;;;;5042281;28;20218;-76
2022/05/24 13:40:58;;;;;;;3.93;0.80;;;;;;;;;;5043947;28;20681;-76
2022/05/24 13:43:32;;;;;;;1.57;0.57;;;;;;;;;;5044200;28;20302;-77
2022/05/24 13:46:23;;;;;;;1.57;0.60;;;;;;;;;;5040250;28;20365;-76
2022/05/24 13:48:54;;;;;;;2.33;0.50;;;;;;;;;;5030892;28;20199;-75
2022/05/24 13:51:28;;;;;;;1.93;0.47;;;;;;;;;;5042462;28;20292;-76
2022/05/24 13:53:56;;;;;;;3.80;0.60;;;;;;;;;;5043016;28;20224;-76
2022/05/24 13:56:24;;;;;;;4.43;0.90;;;;;;;;;;5043601;28;20303;-75
2022/05/24 13:59:02;;;;;;;3.47;0.50;;;;;;;;;;5038321;28;20219;-75
2022/05/24 14:01:32;;;;;;;4.37;0.70;;;;;;;;;;5043823;28;20230;-75
2022/05/24 14:04:01;;;;;;;3.67;0.70;;;;;;;;;;5043105;28;20230;-75
2022/05/24 14:06:31;;;;;;;1.80;0.70;;;;;;;;;;5041590;28;20211;-76
2022/05/24 14:08:59;;;;;;;3.17;0.60;;;;;;;;;;5042868;28;20289;-76
2022/05/24 14:11:27;;;;;;;1.23;0.50;;;;;;;;;;5042947;28;20310;-76
2022/05/24 14:13:54;;;;;;;0.97;0.43;;;;;;;;;;5040283;28;20217;-75
2022/05/24 14:16:22;;;;;;;3.57;0.60;;;;;;;;;;5045437;28;20205;-76
2022/05/24 14:18:50;;;;;;;2.97;0.60;;;;;;;;;;5041677;28;20254;-75
2022/05/24 14:21:18;;;;;;;1.33;0.80;;;;;;;;;;5047078;28;20270;-75
2022/05/24 14:23:47;;;;;;;2.17;1.03;;;;;;;;;;5048542;28;20245;-76
2022/05/24 14:26:14;;;;;;;1.20;0.60;;;;;;;;;;5044008;28;20653;-74
2022/05/24 14:28:41;;;;;;;3.43;0.60;;;;;;;;;;5047625;28;20203;-75
2022/05/24 14:31:10;;;;;;;4.87;0.77;;;;;;;;;;5042744;28;20235;-76
2022/05/24 14:33:38;;;;;;;3.30;0.40;;;;;;;;;;5042071;28;20211;-76
2022/05/24 14:36:06;;;;;;;4.80;0.53;;;;;;;;;;5046697;28;20290;-75
2022/05/24 14:38:33;;;;;;;2.47;0.60;;;;;;;;;;5045956;28;20260;-76
2022/05/24 14:41:16;;;;;;;1.77;0.50;;;;;;;;;;5045171;28;20290;-76
2022/05/24 14:43:45;;;;;;;1.23;0.43;;;;;;;;;;5046138;28;20634;-75
2022/05/24 14:46:12;;;;;;;2.87;0.40;;;;;;;;;;5043305;28;20209;-75
2022/05/24 14:48:39;;;;;;;1.43;0.40;;;;;;;;;;5043136;28;20204;-76
2022/05/24 14:51:07;;;;;;;0.67;0.40;;;;;;;;;;5041306;28;20317;-75
2022/05/24 14:53:34;;;;;;;3.40;0.50;;;;;;;;;;5044632;28;20626;-74
2022/05/24 14:56:02;;;;;;;0.57;0.40;;;;;;;;;;5042708;28;20293;-76
2022/05/24 14:58:30;;;;;;;2.20;0.30;;;;;;;;;;5043530;28;20291;-75
2022/05/24 15:00:57;;;;;;;0.40;0.37;;;;;;;;;;5039564;28;20251;-75
2022/05/24 15:03:24;;;;;;;1.03;0.40;;;;;;;;;;5040272;28;20200;-76
2022/05/24 15:05:51;;;;;;;0.67;0.20;;;;;;;;;;5044303;28;20656;-76
2022/05/24 15:16:35;;;;;;;2.43;0.47;;;;;;;;;;5041289;28;20210;-75
2022/05/24 15:19:02;;;;;;;0.97;0.27;;;;;;;;;;5042650;28;20319;-75
2022/05/24 15:21:32;;;;;;;1.10;0.30;;;;;;;;;;5041038;28;20265;-75
2022/05/24 15:24:02;;;;;;;0.40;0.20;;;;;;;;;;5043593;28;20260;-75
2022/05/24 15:26:34;;;;;;;0.80;0.43;;;;;;;;;;5045642;28;20207;-75
2022/05/24 15:29:02;;;;;;;1.50;0.40;;;;;;;;;;5044061;28;20677;-74
2022/05/24 15:31:29;;;;;;;4.10;0.40;;;;;;;;;;5047037;28;20248;-76
2022/05/24 15:33:57;;;;;;;3.53;0.50;;;;;;;;;;5042595;28;20302;-74
2022/05/24 15:36:24;;;;;;;0.83;0.50;;;;;;;;;;5042283;28;20203;-76
2022/05/24 15:38:52;;;;;;;2.10;0.40;;;;;;;;;;5043228;28;20252;-75
2022/05/24 15:41:20;;;;;;;1.37;0.47;;;;;;;;;;5043117;28;20261;-75
2022/05/24 15:43:48;;;;;;;1.57;0.60;;;;;;;;;;5042213;28;20202;-75
2022/05/24 15:46:16;;;;;;;1.97;0.50;;;;;;;;;;5043481;28;20619;-76
2022/05/24 15:48:44;;;;;;;1.43;0.50;;;;;;;;;;5050241;28;20202;-76
2022/05/24 15:51:11;;;;;;;1.00;0.50;;;;;;;;;;5049110;28;20238;-75